Date,TemperatureHighF,TemperatureAvgF,TemperatureLowF,DewpointHighF,DewpointAvgF,DewpointLowF,HumidityHigh,HumidityAvg,HumidityLow,PressureMaxIn,PressureMinIn,WindSpeedMaxMPH,WindSpeedAvgMPH,GustSpeedMaxMPH,PrecipitationSumIn
2014-1-1,63,47,58,62,22,-100,97,71,85,30.21,30.03,14,-228,0,0.01
2014-1-2,79,52,59,71,26,-100,98,70,73,30.02,29.77,22,-233,0,0.36
2014-1-3,58,37,40,53,11,-100,86,58,49,30.24,29.90,26,-179,0,0.00
2014-1-4,65,46,44,58,24,-100,93,70,74,30.21,30.05,13,-178,0,0.00
2014-1-5,82,57,57,67,33,-100,95,66,57,30.07,29.91,8,-182,0,0.00
2014-1-6,74,47,42,66,19,-100,96,57,43,30.27,29.90,29,-197,0,0.45
2014-1-7,43,30,32,30,-2,-100,79,45,33,30.39,30.25,23,-194,0,0.00
2014-1-8,65,44,36,53,16,-100,87,57,52,30.37,30.25,13,-194,0,0.00
2014-1-9,69,47,56,66,18,-100,97,67,81,30.27,30.16,15,-258,0,0.11
2014-1-10,81,54,67,72,23,-100,98,62,66,30.18,30.02,9,-267,0,0.01
2014-1-11,83,60,66,72,37,-100,97,67,60,30.05,29.85,24,-178,0,0.60
2014-1-12,66,50,52,65,23,-100,96,54,39,30.18,29.94,13,-157,0,0.01
2014-1-13,78,55,51,65,32,-100,90,63,58,30.14,29.93,11,-162,0,0.00
2014-1-14,73,53,58,67,29,-100,90,66,72,29.97,29.85,16,-200,0,0.01
2014-1-15,63,48,53,55,21,-100,93,56,48,30.01,29.89,12,-175,0,0.00
2014-1-16,55,40,42,50,3,-100,92,39,22,30.12,29.91,14,-181,0,0.03
2014-1-17,64,44,40,47,14,-100,81,47,31,30.18,30.05,13,-157,0,0.00
2014-1-18,56,41,41,49,4,-100,85,37,21,30.23,30.05,22,-172,0,0.00
2014-1-19,67,46,39,53,21,-100,90,58,48,30.20,30.07,16,-149,0,0.00
2014-1-20,70,48,50,50,16,-100,94,50,36,30.09,29.98,14,-201,0,0.00
2014-1-21,70,51,54,58,28,-100,94,63,57,30.00,29.75,29,-161,0,0.04
2014-1-22,54,39,40,44,5,-100,72,40,31,30.16,29.86,13,-172,0,0.00
2014-1-23,58,41,38,38,11,-100,77,45,31,30.32,30.14,18,-146,0,0.00
2014-1-24,55,39,42,37,8,-100,75,45,29,30.43,30.25,17,-166,0,0.00
2014-1-25,72,47,42,48,15,-100,85,47,34,30.25,29.97,10,-193,0,0.00
2014-1-26,66,51,55,60,30,-100,94,71,71,30.03,29.94,11,-158,0,0.00
2014-1-27,77,52,60,65,28,-100,97,67,58,29.99,29.88,10,-206,0,0.00
2014-1-28,78,58,59,63,33,-100,97,61,56,30.01,29.90,12,-168,0,0.00
2014-1-29,67,40,42,62,21,-100,96,77,82,30.18,29.93,21,-171,0,0.15
2014-1-30,49,36,43,48,13,-100,97,74,95,30.15,30.06,19,-218,0,0.08
2014-1-31,61,42,47,61,16,-100,98,73,97,30.10,30.00,18,-245,0,0.01
2014-2-1,75,54,58,71,32,-100,99,75,83,30.10,30.00,6,-205,0,0.01
2014-2-2,87,63,67,72,42,-100,97,69,49,30.12,30.00,9,-148,0,0.01
2014-2-3,87,65,66,71,33,-100,96,58,39,30.08,29.97,7,-140,0,0.03
2014-2-4,87,63,66,74,30,-100,100,61,55,30.09,29.97,11,-160,0,0.01
2014-2-5,83,65,69,72,46,-100,94,72,66,30.03,29.91,16,-131,0,0.00
2014-2-6,72,49,48,69,30,-100,94,74,74,30.16,29.99,18,-154,0,0.00
2014-2-7,57,43,48,56,22,-100,98,77,93,30.16,30.07,18,-189,0,0.00
2014-2-8,57,44,52,57,25,-100,98,79,96,30.12,30.02,15,-184,0,0.00
2014-2-9,70,49,50,57,26,-100,97,65,52,30.10,30.00,14,-169,0,0.00
2014-2-10,75,54,52,54,31,-100,91,60,39,30.09,29.99,11,-130,0,0.00
2014-2-11,80,56,56,61,31,-100,89,61,50,30.04,29.94,18,-158,0,0.00
2014-2-12,78,54,58,65,32,-100,97,68,53,30.01,29.65,20,-173,0,0.14
2014-2-13,63,46,45,61,25,-100,95,65,61,29.95,29.64,25,-138,0,0.00
2014-2-14,69,48,44,47,20,-100,92,49,24,30.05,29.89,9,-127,0,0.00
2014-2-15,69,51,50,56,24,-100,91,52,25,30.11,29.86,17,-122,0,0.00
2014-2-16,71,51,47,44,20,-100,87,45,15,30.17,30.07,14,-127,0,0.00
2014-2-17,79,57,49,48,26,-100,79,43,21,30.21,30.11,8,-106,0,0.00
2014-2-18,83,60,58,60,32,-100,89,49,29,30.19,30.10,12,-128,0,0.00
2014-2-19,84,63,60,64,42,-100,91,62,36,30.16,30.02,8,-114,0,0.00
2014-2-20,85,64,61,67,44,-100,96,66,45,30.13,30.01,13,-118,0,0.00
2014-2-21,80,62,66,72,45,-100,97,76,73,30.03,29.93,15,-130,0,0.00
2014-2-22,75,58,62,71,41,-100,97,78,87,30.06,29.97,15,-150,0,0.08
2014-2-23,85,59,62,71,40,-100,97,72,54,30.04,29.92,16,-149,0,0.02
2014-2-24,74,55,63,67,33,-100,95,72,74,30.03,29.91,11,-179,0,0.00
2014-2-25,80,61,62,61,37,-100,94,60,43,30.02,29.89,7,-138,0,0.00
2014-2-26,69,56,62,63,39,-100,96,76,70,29.92,29.65,13,-135,0,0.00
2014-2-27,63,46,49,62,22,-100,98,66,63,29.92,29.73,18,-181,0,0.00
2014-2-28,69,50,47,52,25,-100,81,54,37,30.08,29.91,17,-136,0,0.00
2014-3-1,75,54,52,59,34,-100,95,68,52,30.18,30.05,14,-128,0,0.00
2014-3-2,80,59,56,62,37,-100,93,63,48,30.18,30.02,8,-145,0,0.00
2014-3-3,84,64,61,63,42,-100,88,60,33,30.03,29.90,25,-104,0,0.00
2014-3-4,84,60,56,65,40,-100,96,67,28,30.02,29.92,18,-126,0,0.00
2014-3-5,76,53,56,62,34,-100,97,73,57,30.03,29.92,13,-143,0,0.00
2014-3-6,69,55,58,68,39,-100,97,79,78,30.00,29.65,11,-136,0,0.00
2014-3-7,60,45,46,59,25,-100,96,72,78,30.03,29.73,20,-159,0,0.00
2014-3-8,75,52,46,55,27,-100,91,58,37,30.12,30.01,12,-139,0,0.00
2014-3-9,77,58,54,58,36,-100,94,60,39,30.17,30.04,10,-110,0,0.00
2014-3-10,79,60,59,56,31,-100,79,47,22,30.09,29.92,11,-126,0,0.00
2014-3-11,83,64,58,59,40,-100,93,55,33,29.96,29.79,10,-96,0,0.00
2014-3-12,78,62,65,68,42,-100,91,66,56,29.81,29.67,25,-115,0,0.00
2014-3-13,66,53,48,60,24,-100,86,47,28,30.17,29.79,18,-109,0,0.00
2014-3-14,74,54,48,52,29,-100,76,53,39,30.25,30.12,15,-114,0,0.00
2014-3-15,81,62,56,57,40,-100,85,56,35,30.16,29.99,12,-85,0,0.00
2014-3-16,84,66,62,63,45,-100,92,60,47,30.01,29.70,21,-92,0,0.00
2014-3-17,76,63,68,71,47,-100,96,76,73,29.74,29.62,15,-116,0,0.03
2014-3-18,74,57,58,71,32,-100,97,62,46,30.01,29.56,16,-155,0,0.02
2014-3-19,61,44,58,57,16,-100,90,65,85,30.06,29.99,13,-252,0,0.00
2014-3-20,82,72,61,62,60,58,91,68,46,30.05,29.92,13,5,0,0.00
2014-3-21,80,63,62,63,44,-100,91,64,46,30.07,29.98,15,-94,0,0.00
2014-3-22,86,68,67,68,46,-100,91,57,38,30.03,29.90,15,-83,0,0.00
2014-3-23,80,63,65,68,43,-100,88,65,65,30.00,29.88,13,-124,0,0.00
2014-3-24,72,60,62,66,46,-100,91,75,73,30.04,29.89,15,-94,0,0.00
2014-3-25,73,56,60,61,31,-100,94,59,24,29.98,29.79,24,-134,0,0.00
2014-3-26,63,47,43,41,15,-100,71,38,24,30.27,29.99,28,-103,0,0.00
2014-3-27,67,50,49,59,28,-100,86,63,65,30.29,30.19,12,-157,0,0.00
2014-3-28,83,65,62,65,47,-100,89,66,53,30.19,29.98,19,-93,0,0.00
2014-3-29,76,62,66,72,48,-100,97,81,80,30.02,29.84,18,-106,0,0.06
2014-3-30,72,58,56,65,35,-100,93,56,32,30.05,29.87,17,-92,0,0.01
2014-3-31,79,61,53,55,35,-100,83,51,23,30.12,30.03,10,-71,0,0.00
2014-4-1,85,64,55,58,39,-100,93,54,22,30.16,30.06,9,-73,0,0.00
2014-4-2,87,67,59,60,47,-100,91,61,29,30.16,30.07,17,-62,0,0.00
2014-4-3,86,68,62,66,49,-100,91,62,38,30.12,29.99,11,-76,0,0.00
2014-4-4,83,69,66,66,48,-100,90,61,45,30.04,29.94,13,-86,0,0.00
2014-4-5,86,66,66,68,47,-100,94,65,44,30.03,29.91,11,-105,0,0.00
2014-4-6,89,70,69,67,48,-100,90,58,28,30.01,29.89,15,-94,0,0.00
2014-4-7,90,73,70,71,55,-100,90,64,49,29.91,29.77,21,-68,0,0.08
2014-4-8,77,63,63,73,48,-100,95,77,79,29.82,29.67,22,-101,0,0.00
2014-4-9,73,59,58,56,35,-100,87,54,42,30.14,29.82,16,-99,0,0.00
2014-4-10,79,63,59,58,44,-100,85,60,42,30.25,30.14,12,-62,0,0.00
2014-4-11,79,63,61,65,46,-100,83,66,57,30.23,30.11,10,-84,0,0.00
2014-4-12,79,66,64,63,48,-100,92,65,47,30.17,30.07,16,-70,0,0.00
2014-4-13,80,68,66,65,52,-100,91,68,51,30.11,29.99,15,-58,0,0.00
2014-4-14,90,71,68,70,50,-100,91,60,35,30.01,29.83,12,-87,0,0.00
2014-4-15,85,70,68,73,58,-100,95,75,58,29.90,29.74,26,-50,0,1.60
2014-4-16,72,58,49,63,43,-100,88,71,57,30.12,29.90,25,-66,0,0.01
2014-4-17,74,62,60,67,48,-100,93,75,70,30.18,30.07,23,-78,0,0.00
2014-4-18,81,65,67,72,53,-100,94,79,66,30.11,29.88,23,-83,0,0.30
2014-4-19,76,63,63,68,48,-100,95,74,61,29.93,29.82,20,-89,0,0.01
2014-4-20,70,53,59,60,29,-100,95,65,59,30.06,29.90,15,-172,0,0.00
2014-4-21,70,59,59,62,46,-100,91,75,72,30.05,29.93,18,-80,0,0.00
2014-4-22,80,65,60,63,49,-100,90,68,54,29.95,29.80,12,-61,0,0.00
2014-4-23,85,70,64,65,54,-100,93,66,42,29.91,29.81,10,-49,0,0.00
2014-4-24,90,72,66,69,57,-100,94,69,41,29.98,29.86,13,-51,0,0.00
2014-4-25,84,69,68,67,47,-100,90,61,48,29.98,29.88,14,-93,0,0.00
2014-4-26,87,72,68,70,57,-100,94,69,45,29.99,29.90,12,-50,0,0.00
2014-4-27,92,71,70,73,51,-100,95,65,42,29.98,29.87,12,-106,0,0.00
2014-4-28,94,76,72,71,58,-100,89,64,42,29.94,29.82,12,-64,0,0.00
2014-4-29,93,75,69,75,64,-100,95,77,50,29.99,29.83,17,-39,0,0.85
2014-4-30,89,65,70,75,42,-100,97,71,61,30.03,29.91,12,-147,0,0.15
2014-5-1,88,68,70,75,48,-100,96,69,58,29.98,29.88,13,-128,0,0.06
2014-5-2,76,68,70,72,60,-100,96,86,80,29.92,29.86,10,-53,0,0.02
2014-5-3,76,60,61,71,48,-100,98,84,83,30.00,29.85,15,-104,0,0.01
2014-5-4,82,64,60,59,38,-100,96,54,34,30.05,29.96,18,-104,0,0.01
2014-5-5,92,72,65,61,43,-100,85,46,24,30.04,29.92,7,-76,0,0.00
2014-5-6,92,75,67,64,53,-100,83,54,30,30.02,29.92,11,-43,0,0.00
2014-5-7,92,75,68,70,57,-100,91,63,40,30.11,29.98,15,-50,0,0.00
2014-5-8,92,75,70,70,59,-100,92,67,36,30.17,30.07,14,-49,0,0.00
2014-5-9,92,75,70,71,59,-100,94,67,34,30.16,30.03,13,-50,0,0.00
2014-5-10,90,72,72,71,51,-100,91,63,37,30.12,30.00,16,-91,0,0.00
2014-5-11,88,75,74,72,59,-100,84,67,52,30.11,30.01,13,-61,0,0.00
2014-5-12,86,72,71,71,54,-100,89,64,43,30.12,30.04,16,-71,0,0.00
2014-5-13,85,75,72,72,64,-100,92,75,54,30.06,29.99,18,-26,0,0.01
2014-5-14,84,71,73,76,58,-100,94,78,68,30.03,29.91,14,-78,0,0.11
2014-5-15,86,73,72,75,65,-100,95,84,69,29.97,29.83,16,-40,0,0.04
2014-5-16,81,68,61,70,44,-100,92,54,25,30.08,29.91,18,-50,0,0.01
2014-5-17,78,65,64,61,43,-100,84,56,45,30.12,30.06,22,-69,0,0.00
2014-5-18,80,68,62,62,50,-100,82,61,45,30.12,30.07,16,-47,0,0.00
2014-5-19,83,73,66,67,59,-100,89,68,49,30.14,30.08,17,-16,0,0.00
2014-5-20,81,72,68,67,60,-100,92,71,49,30.17,30.11,20,-15,0,0.00
2014-5-21,86,71,65,65,51,-100,85,59,45,30.16,30.06,10,-64,0,0.00
2014-5-22,92,78,68,72,63,-100,85,64,45,30.11,29.97,14,-18,0,0.00
2014-5-23,93,80,72,72,65,-100,87,64,42,30.05,29.95,13,-19,0,0.00
2014-5-24,95,80,74,75,64,-100,89,63,44,30.03,29.94,12,-40,0,0.00
2014-5-25,92,76,76,75,58,-100,89,65,38,30.11,29.97,18,-71,0,0.00
2014-5-26,88,74,73,74,63,-100,91,75,55,30.15,30.06,14,-42,0,0.00
2014-5-27,88,74,71,72,58,-100,93,69,48,30.12,30.00,14,-62,0,0.00
2014-5-28,93,78,71,72,66,-100,91,70,40,30.05,29.95,9,-19,0,0.00
2014-5-29,94,76,72,74,61,-100,91,70,43,30.00,29.91,9,-52,0,0.01
2014-5-30,90,75,71,73,63,-100,91,75,56,29.99,29.93,10,-40,0,0.00
2014-5-31,87,74,71,74,64,-100,94,80,60,30.02,29.93,17,-41,0,0.17
2014-6-1,85,73,73,74,66,-100,94,84,63,30.06,29.97,15,-28,0,0.01
2014-6-2,82,73,73,71,60,-100,93,70,54,30.10,30.01,19,-36,0,0.00
2014-6-3,80,71,70,68,57,-100,85,70,62,30.05,29.96,12,-50,0,0.01
2014-6-4,88,74,70,68,58,-100,90,65,46,29.98,29.88,11,-40,0,0.00
2014-6-5,91,71,70,70,44,-100,88,52,35,29.95,29.83,12,-117,0,0.00
2014-6-6,96,65,73,70,28,-100,84,45,36,29.95,29.85,9,-238,0,0.00
2014-6-7,93,56,75,73,12,-100,82,42,48,29.97,29.78,16,-337,0,0.00
2014-6-8,98,76,71,72,56,-100,92,63,32,29.95,29.82,17,-64,0,0.00
2014-6-9,94,75,72,75,60,-100,90,71,50,29.95,29.85,9,-62,0,0.00
2014-6-10,99,78,72,77,66,-100,94,76,37,30.01,29.88,15,-30,0,0.02
2014-6-11,92,67,70,72,50,-100,95,74,45,29.96,29.88,11,-109,0,0.02
2014-6-12,87,69,71,72,56,-100,94,77,54,29.98,29.88,11,-72,0,0.04
2014-6-13,85,70,70,75,58,-100,93,77,67,30.00,29.89,19,-73,0,0.07
2014-6-14,91,69,69,71,57,-100,93,78,47,30.05,29.94,19,-74,0,0.03
2014-6-15,92,73,70,75,61,-100,94,75,50,30.09,30.02,15,-54,0,0.03
2014-6-16,87,74,71,74,60,-100,93,74,60,30.13,30.04,14,-52,0,0.00
2014-6-17,90,55,72,71,14,-100,90,44,46,30.12,30.03,14,-320,0,0.00
2014-6-18,89,54,76,74,15,-100,92,48,47,30.09,30.03,10,-323,0,0.00
2014-6-19,88,72,74,73,55,-100,93,69,49,30.10,30.01,16,-95,0,0.00
2014-6-20,93,78,74,75,66,-100,86,74,49,30.05,29.92,15,-27,0,0.00
2014-6-21,92,78,74,75,64,-100,91,70,48,29.96,29.85,17,-39,0,0.00
2014-6-22,92,70,76,73,45,-100,88,60,52,29.93,29.86,11,-147,0,0.00
2014-6-23,92,74,75,76,59,-100,88,72,56,30.04,29.91,12,-75,0,0.01
2014-6-24,95,78,76,75,64,-100,89,70,47,30.09,29.99,10,-52,0,0.01
2014-6-25,96,66,77,77,31,-100,91,52,40,30.10,29.96,21,-229,0,0.01
2014-6-26,94,75,72,76,60,-100,94,73,53,30.07,29.92,17,-72,0,0.08
2014-6-27,96,70,72,76,52,-100,94,69,49,30.07,29.97,33,-117,0,0.03
2014-6-28,98,78,75,76,58,-100,89,62,28,30.09,30.02,11,-74,0,0.00
2014-6-29,96,67,79,75,33,-100,83,49,38,30.09,29.99,12,-220,0,0.00
2014-6-30,88,57,77,78,19,-100,92,51,55,30.02,29.88,22,-311,0,0.00
2014-7-1,91,75,76,75,58,-100,94,68,48,29.91,29.82,19,-82,0,0.00
2014-7-2,88,75,75,77,62,-100,92,75,52,29.90,29.81,16,-60,0,0.00
2014-7-3,92,76,76,77,62,-100,90,74,56,30.04,29.89,24,-60,0,0.00
2014-7-4,89,73,75,76,58,-100,91,73,64,30.07,29.97,13,-84,0,0.00
2014-7-5,93,75,73,77,63,-100,95,76,54,30.08,29.99,10,-55,0,0.00
2014-7-6,86,64,72,77,48,-100,95,77,61,30.06,29.99,12,-138,0,0.00
2014-7-7,94,77,72,76,63,-100,96,74,47,30.08,29.99,7,-53,0,0.00
2014-7-8,97,77,72,75,63,-100,94,72,40,30.10,30.01,10,-52,0,0.00
2014-7-9,92,74,73,77,64,-100,95,79,58,30.09,30.00,13,-52,0,0.00
2014-7-10,91,74,72,75,67,67,94,75,46,30.08,30.00,10,2,0,0.01
2014-7-11,95,72,73,77,65,71,96,71,49,30.12,30.02,11,2,0,0.00
2014-7-12,99,75,75,77,67,62,93,72,31,30.11,30.03,15,2,0,0.00
2014-7-13,94,76,75,78,70,69,95,76,49,30.08,30.01,18,2,0,0.00
2014-7-14,95,76,74,77,70,70,93,78,54,30.05,29.96,13,2,0,0.00
2014-7-15,91,71,73,76,66,70,93,77,61,29.99,29.90,10,3,0,0.00
2014-7-16,84,74,74,77,71,71,94,87,77,29.94,29.84,13,5,0,0.00
2014-7-17,89,74,76,77,68,71,93,75,59,29.98,29.86,11,4,0,0.00
2014-7-18,94,80,76,78,70,66,94,70,43,30.05,29.95,12,3,0,0.00
2014-7-19,96,82,77,78,72,71,93,69,47,30.04,29.96,8,2,0,0.00
2014-7-20,95,77,78,78,69,71,89,71,49,30.02,29.96,16,3,0,0.00
2014-7-21,94,78,74,77,71,70,95,77,51,30.04,29.93,15,3,0,0.00
2014-7-22,98,68,74,77,61,69,95,66,39,30.03,29.95,14,2,0,0.00
2014-7-23,97,78,74,78,68,67,95,67,38,30.03,29.94,9,1,0,0.00
2014-7-24,98,75,76,78,67,69,92,69,40,30.01,29.91,20,2,0,0.00
2014-7-25,98,72,76,76,64,69,90,67,40,30.03,29.96,13,2,0,0.00
2014-7-26,93,78,77,78,71,73,90,77,57,30.05,29.97,12,2,0,0.00
2014-7-27,90,78,77,78,71,73,92,72,61,30.04,29.97,15,4,0,0.00
2014-7-28,92,80,79,77,72,74,88,71,61,30.01,29.89,21,8,0,0.00
2014-7-29,91,77,75,79,72,70,92,79,61,29.93,29.86,17,8,0,0.00
2014-7-30,92,80,76,76,67,64,95,64,41,29.94,29.87,13,3,0,0.00
2014-7-31,93,80,77,78,71,72,92,70,51,29.94,29.86,10,3,0,0.00
2014-8-1,95,80,77,76,70,69,83,67,48,29.95,29.87,9,3,0,0.00
2014-8-2,93,81,78,78,73,74,92,75,55,29.95,29.85,15,4,0,0.00
2014-8-3,91,77,78,78,71,74,93,77,61,29.92,29.82,24,3,0,0.00
2014-8-4,90,77,75,78,72,72,95,81,63,29.92,29.82,18,3,0,0.00
2014-8-5,90,73,74,77,67,73,95,72,63,30.00,29.89,12,4,0,0.00
2014-8-6,96,75,77,78,67,70,93,69,49,30.02,29.92,11,2,0,0.00
2014-8-7,94,78,76,79,72,72,94,78,49,29.97,29.87,17,2,0,0.00
2014-8-8,95,74,74,77,67,71,94,71,53,30.02,29.91,16,2,0,0.00
2014-8-9,92,78,76,77,70,70,89,74,57,30.03,29.94,17,3,0,0.00
2014-8-10,90,75,78,78,69,70,90,74,61,30.01,29.94,19,5,0,0.00
2014-8-11,87,74,74,77,70,72,94,81,68,30.00,29.93,22,7,0,0.00
2014-8-12,93,77,75,77,69,70,92,72,46,29.97,29.89,17,4,0,0.00
2014-8-13,93,80,77,77,72,72,90,72,54,29.97,29.90,18,5,0,0.00
2014-8-14,97,81,77,78,72,70,91,74,45,29.98,29.91,15,4,0,0.00
2014-8-15,86,76,76,77,70,70,92,76,71,30.00,29.92,14,4,0,0.00
2014-8-16,91,73,74,77,68,69,93,80,60,30.05,29.95,22,3,0,0.00
2014-8-17,95,79,75,77,70,72,95,71,50,30.07,29.97,11,4,0,0.00
2014-8-18,93,82,79,78,73,73,89,72,54,30.02,29.91,13,3,0,0.00
2014-8-19,99,83,78,77,71,67,90,66,36,30.00,29.90,11,4,0,0.00
2014-8-20,95,82,79,77,70,69,89,63,43,30.05,29.94,11,3,0,0.00
2014-8-21,100,81,76,78,69,70,86,64,39,30.08,29.97,18,2,0,0.00
2014-8-22,98,79,78,77,68,66,86,64,35,30.05,29.93,16,2,0,0.00
2014-8-23,99,81,78,77,69,67,83,63,38,29.96,29.81,8,2,0,0.00
2014-8-24,99,79,78,78,70,70,88,67,40,29.84,29.72,20,5,0,0.00
2014-8-25,88,75,78,78,67,70,90,69,57,29.83,29.75,25,11,0,0.00
2014-8-26,87,76,75,74,68,68,94,71,55,29.91,29.80,23,9,0,0.00